sensor_id;sensor_type;location;lat;lon;timestamp;temperature;humidity
9881;DHT22;4979;51.014;6.678;2023-11-21T00:02:25;9.20;99.90
9881;DHT22;4979;51.014;6.678;2023-11-21T00:04:50;9.20;99.90
9881;DHT22;4979;51.014;6.678;2023-11-21T00:07:17;9.30;99.90
9881;DHT22;4979;51.014;6.678;2023-11-21T00:09:43;9.30;99.90
9881;DHT22;4979;51.014;6.678;2023-11-21T00:12:08;9.30;99.90
9881;DHT22;4979;51.014;6.678;2023-11-21T00:14:37;9.30;99.90
9881;DHT22;4979;51.014;6.678;2023-11-21T00:17:03;9.40;99.90
9881;DHT22;4979;51.014;6.678;2023-11-21T00:19:29;9.30;99.90
9881;DHT22;4979;51.014;6.678;2023-11-21T00:21:55;9.10;99.90
9881;DHT22;4979;51.014;6.678;2023-11-21T00:24:20;9.10;99.90
9881;DHT22;4979;51.014;6.678;2023-11-21T00:26:46;9.10;99.90
9881;DHT22;4979;51.014;6.678;2023-11-21T00:29:13;9.00;99.90
9881;DHT22;4979;51.014;6.678;2023-11-21T00:31:39;9.00;99.90
9881;DHT22;4979;51.014;6.678;2023-11-21T00:34:04;9.10;99.90
9881;DHT22;4979;51.014;6.678;2023-11-21T00:36:33;9.20;99.90
9881;DHT22;4979;51.014;6.678;2023-11-21T00:38:58;9.10;99.90
9881;DHT22;4979;51.014;6.678;2023-11-21T00:41:25;9.10;99.90
9881;DHT22;4979;51.014;6.678;2023-11-21T00:43:53;9.00;99.90
9881;DHT22;4979;51.014;6.678;2023-11-21T00:46:19;9.00;99.90
9881;DHT22;4979;51.014;6.678;2023-11-21T00:48:44;9.00;99.90
9881;DHT22;4979;51.014;6.678;2023-11-21T00:51:10;9.00;99.90
9881;DHT22;4979;51.014;6.678;2023-11-21T00:53:35;9.10;99.90
9881;DHT22;4979;51.014;6.678;2023-11-21T00:56:01;9.10;99.90
9881;DHT22;4979;51.014;6.678;2023-11-21T00:58:28;8.90;99.90
9881;DHT22;4979;51.014;6.678;2023-11-21T01:00:53;8.90;99.90
9881;DHT22;4979;51.014;6.678;2023-11-21T01:03:19;9.00;99.90
9881;DHT22;4979;51.014;6.678;2023-11-21T01:05:45;8.90;99.90
9881;DHT22;4979;51.014;6.678;2023-11-21T01:08:11;8.90;99.90
9881;DHT22;4979;51.014;6.678;2023-11-21T01:10:37;8.90;99.90
9881;DHT22;4979;51.014;6.678;2023-11-21T01:13:03;8.90;99.90
9881;DHT22;4979;51.014;6.678;2023-11-21T01:15:30;8.90;99.90
9881;DHT22;4979;51.014;6.678;2023-11-21T01:17:56;8.90;99.90
9881;DHT22;4979;51.014;6.678;2023-11-21T01:20:21;9.00;99.90
9881;DHT22;4979;51.014;6.678;2023-11-21T01:22:47;9.00;99.90
9881;DHT22;4979;51.014;6.678;2023-11-21T01:25:14;9.00;99.90
9881;DHT22;4979;51.014;6.678;2023-11-21T01:27:41;8.90;99.90
9881;DHT22;4979;51.014;6.678;2023-11-21T01:30:07;8.90;99.90
9881;DHT22;4979;51.014;6.678;2023-11-21T01:32:34;8.80;99.90
9881;DHT22;4979;51.014;6.678;2023-11-21T01:35:00;8.80;99.90
9881;DHT22;4979;51.014;6.678;2023-11-21T01:37:26;8.60;99.90
9881;DHT22;4979;51.014;6.678;2023-11-21T01:39:54;8.70;99.90
9881;DHT22;4979;51.014;6.678;2023-11-21T01:42:20;8.60;99.90
9881;DHT22;4979;51.014;6.678;2023-11-21T01:44:46;8.70;99.90
9881;DHT22;4979;51.014;6.678;2023-11-21T01:47:12;8.50;99.90
9881;DHT22;4979;51.014;6.678;2023-11-21T01:49:38;8.60;99.90
9881;DHT22;4979;51.014;6.678;2023-11-21T01:52:04;8.80;99.90
9881;DHT22;4979;51.014;6.678;2023-11-21T01:54:30;8.70;99.90
9881;DHT22;4979;51.014;6.678;2023-11-21T01:56:58;8.70;99.90
9881;DHT22;4979;51.014;6.678;2023-11-21T01:59:34;8.90;99.90
9881;DHT22;4979;51.014;6.678;2023-11-21T02:02:00;8.80;99.90
9881;DHT22;4979;51.014;6.678;2023-11-21T02:04:25;8.80;99.90
9881;DHT22;4979;51.014;6.678;2023-11-21T02:06:51;8.70;99.90
9881;DHT22;4979;51.014;6.678;2023-11-21T02:09:17;8.80;99.90
9881;DHT22;4979;51.014;6.678;2023-11-21T02:11:43;8.80;99.90
9881;DHT22;4979;51.014;6.678;2023-11-21T02:14:09;8.80;99.90
9881;DHT22;4979;51.014;6.678;2023-11-21T02:16:35;8.80;99.90
9881;DHT22;4979;51.014;6.678;2023-11-21T02:19:02;8.90;99.90
9881;DHT22;4979;51.014;6.678;2023-11-21T02:21:30;8.80;99.90
9881;DHT22;4979;51.014;6.678;2023-11-21T02:23:56;9.50;99.90
9881;DHT22;4979;51.014;6.678;2023-11-21T02:26:21;8.90;99.90
9881;DHT22;4979;51.014;6.678;2023-11-21T02:28:47;8.90;99.90
9881;DHT22;4979;51.014;6.678;2023-11-21T02:31:13;8.80;99.90
9881;DHT22;4979;51.014;6.678;2023-11-21T02:33:38;8.90;99.90
9881;DHT22;4979;51.014;6.678;2023-11-21T02:36:05;8.90;99.90
9881;DHT22;4979;51.014;6.678;2023-11-21T02:38:31;8.90;99.90
9881;DHT22;4979;51.014;6.678;2023-11-21T02:40:57;8.70;99.90
9881;DHT22;4979;51.014;6.678;2023-11-21T02:43:24;8.80;99.90
9881;DHT22;4979;51.014;6.678;2023-11-21T02:45:50;8.90;99.90
9881;DHT22;4979;51.014;6.678;2023-11-21T02:48:15;8.90;99.90
9881;DHT22;4979;51.014;6.678;2023-11-21T02:50:41;8.90;99.90
9881;DHT22;4979;51.014;6.678;2023-11-21T02:53:08;8.90;99.90
9881;DHT22;4979;51.014;6.678;2023-11-21T02:55:36;8.80;99.90
9881;DHT22;4979;51.014;6.678;2023-11-21T02:58:02;8.90;99.90
9881;DHT22;4979;51.014;6.678;2023-11-21T03:00:29;8.90;99.90
9881;DHT22;4979;51.014;6.678;2023-11-21T03:02:55;8.90;99.90
9881;DHT22;4979;51.014;6.678;2023-11-21T03:05:21;9.00;99.90
9881;DHT22;4979;51.014;6.678;2023-11-21T03:07:47;9.00;99.90
9881;DHT22;4979;51.014;6.678;2023-11-21T03:10:12;9.00;99.90
9881;DHT22;4979;51.014;6.678;2023-11-21T03:12:38;8.80;99.90
9881;DHT22;4979;51.014;6.678;2023-11-21T03:15:07;8.80;99.90
9881;DHT22;4979;51.014;6.678;2023-11-21T03:17:33;9.00;99.90
9881;DHT22;4979;51.014;6.678;2023-11-21T03:20:00;9.00;99.90
9881;DHT22;4979;51.014;6.678;2023-11-21T03:22:25;8.90;99.90
9881;DHT22;4979;51.014;6.678;2023-11-21T03:24:51;9.00;99.90
9881;DHT22;4979;51.014;6.678;2023-11-21T03:27:18;9.10;99.90
9881;DHT22;4979;51.014;6.678;2023-11-21T03:29:43;9.00;99.90
9881;DHT22;4979;51.014;6.678;2023-11-21T03:32:10;9.10;99.90
9881;DHT22;4979;51.014;6.678;2023-11-21T03:34:53;9.10;99.90
9881;DHT22;4979;51.014;6.678;2023-11-21T03:37:20;9.10;99.90
9881;DHT22;4979;51.014;6.678;2023-11-21T03:39:46;8.90;99.90
9881;DHT22;4979;51.014;6.678;2023-11-21T03:42:12;9.10;99.90
9881;DHT22;4979;51.014;6.678;2023-11-21T03:44:38;9.10;99.90
9881;DHT22;4979;51.014;6.678;2023-11-21T03:47:03;9.10;99.90
9881;DHT22;4979;51.014;6.678;2023-11-21T03:49:29;8.90;99.90
9881;DHT22;4979;51.014;6.678;2023-11-21T03:51:55;8.90;99.90
9881;DHT22;4979;51.014;6.678;2023-11-21T03:54:21;8.90;99.90
9881;DHT22;4979;51.014;6.678;2023-11-21T03:56:46;9.00;99.90
9881;DHT22;4979;51.014;6.678;2023-11-21T03:59:12;9.10;99.90
9881;DHT22;4979;51.014;6.678;2023-11-21T04:01:38;8.90;99.90
9881;DHT22;4979;51.014;6.678;2023-11-21T04:04:03;8.90;99.90
9881;DHT22;4979;51.014;6.678;2023-11-21T04:06:29;8.90;99.90
9881;DHT22;4979;51.014;6.678;2023-11-21T04:08:55;9.00;99.90
9881;DHT22;4979;51.014;6.678;2023-11-21T04:11:20;8.90;99.90
9881;DHT22;4979;51.014;6.678;2023-11-21T04:13:46;8.80;99.90
9881;DHT22;4979;51.014;6.678;2023-11-21T04:16:12;8.90;99.90
9881;DHT22;4979;51.014;6.678;2023-11-21T04:18:38;8.90;99.90
9881;DHT22;4979;51.014;6.678;2023-11-21T04:21:07;8.80;99.90
9881;DHT22;4979;51.014;6.678;2023-11-21T04:23:34;8.90;99.90
9881;DHT22;4979;51.014;6.678;2023-11-21T04:26:00;8.80;99.90
9881;DHT22;4979;51.014;6.678;2023-11-21T04:28:27;8.80;99.90
9881;DHT22;4979;51.014;6.678;2023-11-21T04:30:53;8.80;99.90
9881;DHT22;4979;51.014;6.678;2023-11-21T04:33:18;8.70;99.90
9881;DHT22;4979;51.014;6.678;2023-11-21T04:35:44;8.70;99.90
9881;DHT22;4979;51.014;6.678;2023-11-21T04:38:10;8.80;99.90
9881;DHT22;4979;51.014;6.678;2023-11-21T04:40:35;8.80;99.90
9881;DHT22;4979;51.014;6.678;2023-11-21T04:43:01;8.80;99.90
9881;DHT22;4979;51.014;6.678;2023-11-21T04:45:27;8.70;99.90
9881;DHT22;4979;51.014;6.678;2023-11-21T04:47:52;8.70;99.90
9881;DHT22;4979;51.014;6.678;2023-11-21T04:50:18;8.80;99.90
9881;DHT22;4979;51.014;6.678;2023-11-21T04:52:44;8.80;99.90
9881;DHT22;4979;51.014;6.678;2023-11-21T04:55:10;8.70;99.90
9881;DHT22;4979;51.014;6.678;2023-11-21T04:57:39;8.70;99.90
9881;DHT22;4979;51.014;6.678;2023-11-21T05:00:07;8.80;99.90
9881;DHT22;4979;51.014;6.678;2023-11-21T05:02:33;8.80;99.90
9881;DHT22;4979;51.014;6.678;2023-11-21T05:05:02;8.80;99.90
9881;DHT22;4979;51.014;6.678;2023-11-21T05:07:28;8.80;99.90
9881;DHT22;4979;51.014;6.678;2023-11-21T05:09:57;8.60;99.90
9881;DHT22;4979;51.014;6.678;2023-11-21T05:12:24;8.70;99.90
9881;DHT22;4979;51.014;6.678;2023-11-21T05:14:50;8.70;99.90
9881;DHT22;4979;51.014;6.678;2023-11-21T05:17:16;8.60;99.90
9881;DHT22;4979;51.014;6.678;2023-11-21T05:19:41;8.70;99.90
9881;DHT22;4979;51.014;6.678;2023-11-21T05:22:08;8.80;99.90
9881;DHT22;4979;51.014;6.678;2023-11-21T05:24:34;8.70;99.90
9881;DHT22;4979;51.014;6.678;2023-11-21T05:27:00;8.70;99.90
9881;DHT22;4979;51.014;6.678;2023-11-21T05:29:26;8.80;99.90
9881;DHT22;4979;51.014;6.678;2023-11-21T05:31:51;8.70;99.90
9881;DHT22;4979;51.014;6.678;2023-11-21T05:34:18;8.80;99.90
9881;DHT22;4979;51.014;6.678;2023-11-21T05:36:44;8.60;99.90
9881;DHT22;4979;51.014;6.678;2023-11-21T05:39:11;8.70;99.90
9881;DHT22;4979;51.014;6.678;2023-11-21T05:41:37;8.70;99.90
9881;DHT22;4979;51.014;6.678;2023-11-21T05:44:02;8.80;99.90
9881;DHT22;4979;51.014;6.678;2023-11-21T05:46:28;8.80;99.90
9881;DHT22;4979;51.014;6.678;2023-11-21T05:48:53;8.80;99.90
9881;DHT22;4979;51.014;6.678;2023-11-21T05:51:20;8.70;99.90
9881;DHT22;4979;51.014;6.678;2023-11-21T05:53:45;8.70;99.90
9881;DHT22;4979;51.014;6.678;2023-11-21T05:56:12;8.70;99.90
9881;DHT22;4979;51.014;6.678;2023-11-21T05:58:39;8.80;99.90
9881;DHT22;4979;51.014;6.678;2023-11-21T06:01:05;8.80;99.90
9881;DHT22;4979;51.014;6.678;2023-11-21T06:03:33;8.70;99.90
9881;DHT22;4979;51.014;6.678;2023-11-21T06:05:58;8.80;99.90
9881;DHT22;4979;51.014;6.678;2023-11-21T06:08:24;8.70;99.90
9881;DHT22;4979;51.014;6.678;2023-11-21T06:10:50;8.90;99.90
9881;DHT22;4979;51.014;6.678;2023-11-21T06:13:15;8.80;99.90
9881;DHT22;4979;51.014;6.678;2023-11-21T06:15:41;8.80;99.90
9881;DHT22;4979;51.014;6.678;2023-11-21T06:18:07;8.80;99.90
9881;DHT22;4979;51.014;6.678;2023-11-21T06:20:35;8.80;99.90
9881;DHT22;4979;51.014;6.678;2023-11-21T06:23:03;8.90;99.90
9881;DHT22;4979;51.014;6.678;2023-11-21T06:25:29;9.00;99.90
9881;DHT22;4979;51.014;6.678;2023-11-21T06:27:54;8.80;99.90
9881;DHT22;4979;51.014;6.678;2023-11-21T06:30:21;8.80;99.90
9881;DHT22;4979;51.014;6.678;2023-11-21T06:32:47;9.00;99.90
9881;DHT22;4979;51.014;6.678;2023-11-21T06:35:12;8.90;99.90
9881;DHT22;4979;51.014;6.678;2023-11-21T06:37:38;8.90;99.90
9881;DHT22;4979;51.014;6.678;2023-11-21T06:40:05;9.00;99.90
9881;DHT22;4979;51.014;6.678;2023-11-21T06:42:31;8.90;99.90
9881;DHT22;4979;51.014;6.678;2023-11-21T06:44:57;8.90;99.90
9881;DHT22;4979;51.014;6.678;2023-11-21T06:47:23;9.00;99.90
9881;DHT22;4979;51.014;6.678;2023-11-21T06:49:53;9.00;99.90
9881;DHT22;4979;51.014;6.678;2023-11-21T06:52:19;9.00;99.90
9881;DHT22;4979;51.014;6.678;2023-11-21T06:54:45;8.90;99.90
9881;DHT22;4979;51.014;6.678;2023-11-21T06:57:11;9.00;99.90
9881;DHT22;4979;51.014;6.678;2023-11-21T06:59:37;9.00;99.90
9881;DHT22;4979;51.014;6.678;2023-11-21T07:02:04;8.90;99.90
9881;DHT22;4979;51.014;6.678;2023-11-21T07:04:32;9.00;99.90
9881;DHT22;4979;51.014;6.678;2023-11-21T07:06:58;8.90;99.90
9881;DHT22;4979;51.014;6.678;2023-11-21T07:09:23;8.90;99.90
9881;DHT22;4979;51.014;6.678;2023-11-21T07:11:49;9.00;99.90
9881;DHT22;4979;51.014;6.678;2023-11-21T07:14:15;8.90;99.90
9881;DHT22;4979;51.014;6.678;2023-11-21T07:16:42;9.00;99.90
9881;DHT22;4979;51.014;6.678;2023-11-21T07:19:08;8.90;99.90
9881;DHT22;4979;51.014;6.678;2023-11-21T07:21:35;8.90;99.90
9881;DHT22;4979;51.014;6.678;2023-11-21T07:24:04;8.90;99.90
9881;DHT22;4979;51.014;6.678;2023-11-21T07:26:30;8.90;99.90
9881;DHT22;4979;51.014;6.678;2023-11-21T07:28:56;9.10;99.90
9881;DHT22;4979;51.014;6.678;2023-11-21T07:31:22;9.00;99.90
9881;DHT22;4979;51.014;6.678;2023-11-21T07:33:49;9.10;99.90
9881;DHT22;4979;51.014;6.678;2023-11-21T07:36:15;9.00;99.90
9881;DHT22;4979;51.014;6.678;2023-11-21T07:38:42;9.00;99.90
9881;DHT22;4979;51.014;6.678;2023-11-21T07:41:08;9.00;99.90
9881;DHT22;4979;51.014;6.678;2023-11-21T07:43:35;9.20;99.90
9881;DHT22;4979;51.014;6.678;2023-11-21T07:46:04;9.00;99.90
9881;DHT22;4979;51.014;6.678;2023-11-21T07:48:30;9.10;99.90
9881;DHT22;4979;51.014;6.678;2023-11-21T07:50:57;9.30;99.90
9881;DHT22;4979;51.014;6.678;2023-11-21T07:53:25;9.20;99.90
9881;DHT22;4979;51.014;6.678;2023-11-21T07:55:54;9.20;99.90
9881;DHT22;4979;51.014;6.678;2023-11-21T07:58:20;9.20;99.90
9881;DHT22;4979;51.014;6.678;2023-11-21T08:00:46;9.20;99.90
9881;DHT22;4979;51.014;6.678;2023-11-21T08:03:13;9.30;99.90
9881;DHT22;4979;51.014;6.678;2023-11-21T08:05:39;9.40;99.90
9881;DHT22;4979;51.014;6.678;2023-11-21T08:08:04;9.20;99.90
9881;DHT22;4979;51.014;6.678;2023-11-21T08:10:30;9.30;99.90
9881;DHT22;4979;51.014;6.678;2023-11-21T08:12:55;9.20;99.90
9881;DHT22;4979;51.014;6.678;2023-11-21T08:15:21;9.30;99.90
9881;DHT22;4979;51.014;6.678;2023-11-21T08:17:47;9.30;99.90
9881;DHT22;4979;51.014;6.678;2023-11-21T08:20:14;9.30;99.90
9881;DHT22;4979;51.014;6.678;2023-11-21T08:22:42;9.30;99.90
9881;DHT22;4979;51.014;6.678;2023-11-21T08:25:08;9.30;99.90
9881;DHT22;4979;51.014;6.678;2023-11-21T08:27:34;9.20;99.90
9881;DHT22;4979;51.014;6.678;2023-11-21T08:30:03;9.20;99.90
9881;DHT22;4979;51.014;6.678;2023-11-21T08:32:29;9.30;99.90
9881;DHT22;4979;51.014;6.678;2023-11-21T08:34:57;9.20;99.90
9881;DHT22;4979;51.014;6.678;2023-11-21T08:37:23;9.30;99.90
9881;DHT22;4979;51.014;6.678;2023-11-21T08:39:49;9.30;99.90
9881;DHT22;4979;51.014;6.678;2023-11-21T08:42:14;9.40;99.90
9881;DHT22;4979;51.014;6.678;2023-11-21T08:44:40;9.50;99.90
9881;DHT22;4979;51.014;6.678;2023-11-21T08:47:06;9.50;99.90
9881;DHT22;4979;51.014;6.678;2023-11-21T08:49:32;9.40;99.90
9881;DHT22;4979;51.014;6.678;2023-11-21T08:51:58;9.50;99.90
9881;DHT22;4979;51.014;6.678;2023-11-21T08:54:26;9.60;99.90
9881;DHT22;4979;51.014;6.678;2023-11-21T08:56:53;9.60;99.90
9881;DHT22;4979;51.014;6.678;2023-11-21T08:59:18;9.60;99.90
9881;DHT22;4979;51.014;6.678;2023-11-21T09:01:45;9.70;99.90
9881;DHT22;4979;51.014;6.678;2023-11-21T09:04:11;9.70;99.90
9881;DHT22;4979;51.014;6.678;2023-11-21T09:06:38;9.70;99.90
9881;DHT22;4979;51.014;6.678;2023-11-21T09:09:03;9.60;99.90
9881;DHT22;4979;51.014;6.678;2023-11-21T09:11:33;9.60;99.90
9881;DHT22;4979;51.014;6.678;2023-11-21T09:14:00;9.60;99.90
9881;DHT22;4979;51.014;6.678;2023-11-21T09:16:25;9.60;99.90
9881;DHT22;4979;51.014;6.678;2023-11-21T09:18:51;9.80;99.90
9881;DHT22;4979;51.014;6.678;2023-11-21T09:21:17;9.70;99.90
9881;DHT22;4979;51.014;6.678;2023-11-21T09:23:45;9.70;99.90
9881;DHT22;4979;51.014;6.678;2023-11-21T09:26:11;9.80;99.90
9881;DHT22;4979;51.014;6.678;2023-11-21T09:28:37;9.80;99.90
9881;DHT22;4979;51.014;6.678;2023-11-21T09:31:08;9.90;99.90
9881;DHT22;4979;51.014;6.678;2023-11-21T09:33:34;9.80;99.90
9881;DHT22;4979;51.014;6.678;2023-11-21T09:36:00;9.90;99.90
9881;DHT22;4979;51.014;6.678;2023-11-21T09:38:26;9.90;99.90
9881;DHT22;4979;51.014;6.678;2023-11-21T09:40:54;9.80;99.90
9881;DHT22;4979;51.014;6.678;2023-11-21T09:43:21;9.90;99.90
9881;DHT22;4979;51.014;6.678;2023-11-21T09:45:49;9.90;99.90
9881;DHT22;4979;51.014;6.678;2023-11-21T09:48:19;10.00;99.90
9881;DHT22;4979;51.014;6.678;2023-11-21T09:50:47;10.00;99.90
9881;DHT22;4979;51.014;6.678;2023-11-21T09:53:22;9.90;99.90
9881;DHT22;4979;51.014;6.678;2023-11-21T09:55:51;10.00;99.90
9881;DHT22;4979;51.014;6.678;2023-11-21T09:58:18;10.00;99.90
9881;DHT22;4979;51.014;6.678;2023-11-21T10:00:49;10.10;99.90
9881;DHT22;4979;51.014;6.678;2023-11-21T10:03:15;10.20;99.90
9881;DHT22;4979;51.014;6.678;2023-11-21T10:05:45;10.30;99.90
9881;DHT22;4979;51.014;6.678;2023-11-21T10:08:12;10.40;99.90
9881;DHT22;4979;51.014;6.678;2023-11-21T10:10:45;10.30;99.90
9881;DHT22;4979;51.014;6.678;2023-11-21T10:13:12;10.30;99.90
9881;DHT22;4979;51.014;6.678;2023-11-21T10:15:41;10.30;99.90
9881;DHT22;4979;51.014;6.678;2023-11-21T10:18:09;10.20;99.90
9881;DHT22;4979;51.014;6.678;2023-11-21T10:20:36;10.20;99.90
9881;DHT22;4979;51.014;6.678;2023-11-21T10:23:03;10.30;99.90
9881;DHT22;4979;51.014;6.678;2023-11-21T10:25:30;10.50;99.90
9881;DHT22;4979;51.014;6.678;2023-11-21T10:28:01;10.50;99.90
9881;DHT22;4979;51.014;6.678;2023-11-21T10:30:37;10.30;99.90
9881;DHT22;4979;51.014;6.678;2023-11-21T10:33:07;10.50;99.90
9881;DHT22;4979;51.014;6.678;2023-11-21T10:35:47;10.40;99.90
9881;DHT22;4979;51.014;6.678;2023-11-21T10:38:16;10.60;99.90
9881;DHT22;4979;51.014;6.678;2023-11-21T10:40:43;10.50;99.90
9881;DHT22;4979;51.014;6.678;2023-11-21T10:43:11;10.50;99.90
9881;DHT22;4979;51.014;6.678;2023-11-21T10:45:39;10.50;99.90
9881;DHT22;4979;51.014;6.678;2023-11-21T10:48:12;10.50;99.90
9881;DHT22;4979;51.014;6.678;2023-11-21T10:50:41;10.50;99.90
9881;DHT22;4979;51.014;6.678;2023-11-21T10:53:07;10.50;99.90
9881;DHT22;4979;51.014;6.678;2023-11-21T10:55:34;10.60;99.90
9881;DHT22;4979;51.014;6.678;2023-11-21T10:58:02;10.70;99.90
9881;DHT22;4979;51.014;6.678;2023-11-21T11:00:29;10.50;99.90
9881;DHT22;4979;51.014;6.678;2023-11-21T11:02:55;9.00;99.90
9881;DHT22;4979;51.014;6.678;2023-11-21T11:05:23;10.50;99.90
9881;DHT22;4979;51.014;6.678;2023-11-21T11:08:05;10.60;99.90
9881;DHT22;4979;51.014;6.678;2023-11-21T11:10:31;10.50;99.90
9881;DHT22;4979;51.014;6.678;2023-11-21T11:12:58;10.60;99.90
9881;DHT22;4979;51.014;6.678;2023-11-21T11:15:25;10.60;99.90
9881;DHT22;4979;51.014;6.678;2023-11-21T11:17:50;10.60;99.90
9881;DHT22;4979;51.014;6.678;2023-11-21T11:20:18;10.60;99.90
9881;DHT22;4979;51.014;6.678;2023-11-21T11:28:35;10.80;99.90
9881;DHT22;4979;51.014;6.678;2023-11-21T11:36:43;10.80;99.90
9881;DHT22;4979;51.014;6.678;2023-11-21T11:39:28;10.70;99.90
9881;DHT22;4979;51.014;6.678;2023-11-21T11:41:56;10.70;99.90
9881;DHT22;4979;51.014;6.678;2023-11-21T11:50:08;10.80;99.90
9881;DHT22;4979;51.014;6.678;2023-11-21T11:52:47;10.80;99.90
9881;DHT22;4979;51.014;6.678;2023-11-21T11:55:15;10.70;99.90
9881;DHT22;4979;51.014;6.678;2023-11-21T11:57:54;10.70;99.90
9881;DHT22;4979;51.014;6.678;2023-11-21T12:02:54;10.80;99.90
9881;DHT22;4979;51.014;6.678;2023-11-21T12:05:23;10.80;99.90
9881;DHT22;4979;51.014;6.678;2023-11-21T12:07:56;10.80;99.90
9881;DHT22;4979;51.014;6.678;2023-11-21T12:10:24;10.90;99.90
9881;DHT22;4979;51.014;6.678;2023-11-21T12:12:52;10.80;99.90
9881;DHT22;4979;51.014;6.678;2023-11-21T12:15:19;10.90;99.90
9881;DHT22;4979;51.014;6.678;2023-11-21T12:17:45;10.80;99.90
9881;DHT22;4979;51.014;6.678;2023-11-21T12:20:15;10.70;99.90
9881;DHT22;4979;51.014;6.678;2023-11-21T12:22:55;10.70;99.90
9881;DHT22;4979;51.014;6.678;2023-11-21T12:25:21;10.70;99.90
9881;DHT22;4979;51.014;6.678;2023-11-21T12:27:52;10.70;99.90
9881;DHT22;4979;51.014;6.678;2023-11-21T12:30:22;10.60;99.90
9881;DHT22;4979;51.014;6.678;2023-11-21T12:32:52;10.70;99.90
9881;DHT22;4979;51.014;6.678;2023-11-21T12:35:19;10.70;99.90
9881;DHT22;4979;51.014;6.678;2023-11-21T12:37:46;10.70;99.90
9881;DHT22;4979;51.014;6.678;2023-11-21T12:40:12;10.50;99.90
9881;DHT22;4979;51.014;6.678;2023-11-21T12:42:45;10.50;99.90
9881;DHT22;4979;51.014;6.678;2023-11-21T12:47:47;10.50;99.90
9881;DHT22;4979;51.014;6.678;2023-11-21T12:50:14;10.60;99.90
9881;DHT22;4979;51.014;6.678;2023-11-21T12:52:44;10.70;99.90
9881;DHT22;4979;51.014;6.678;2023-11-21T12:55:23;10.80;99.90
9881;DHT22;4979;51.014;6.678;2023-11-21T12:57:52;10.80;99.90
9881;DHT22;4979;51.014;6.678;2023-11-21T13:00:20;10.80;99.90
9881;DHT22;4979;51.014;6.678;2023-11-21T13:02:54;10.70;99.90
9881;DHT22;4979;51.014;6.678;2023-11-21T13:05:30;10.60;99.90
9881;DHT22;4979;51.014;6.678;2023-11-21T13:07:58;10.70;99.90
9881;DHT22;4979;51.014;6.678;2023-11-21T13:10:25;10.70;99.90
9881;DHT22;4979;51.014;6.678;2023-11-21T13:12:55;10.70;99.90
9881;DHT22;4979;51.014;6.678;2023-11-21T13:15:23;10.70;99.90
9881;DHT22;4979;51.014;6.678;2023-11-21T13:17:50;10.80;99.90
9881;DHT22;4979;51.014;6.678;2023-11-21T13:20:17;10.80;99.90
9881;DHT22;4979;51.014;6.678;2023-11-21T13:25:21;10.80;99.90
9881;DHT22;4979;51.014;6.678;2023-11-21T13:27:46;10.90;99.90
9881;DHT22;4979;51.014;6.678;2023-11-21T13:30:13;10.90;99.90
9881;DHT22;4979;51.014;6.678;2023-11-21T13:32:43;10.90;99.90
9881;DHT22;4979;51.014;6.678;2023-11-21T13:35:10;10.90;99.90
9881;DHT22;4979;51.014;6.678;2023-11-21T13:37:47;10.90;99.90
9881;DHT22;4979;51.014;6.678;2023-11-21T13:40:15;10.80;99.90
9881;DHT22;4979;51.014;6.678;2023-11-21T13:42:44;10.80;99.90
9881;DHT22;4979;51.014;6.678;2023-11-21T13:45:11;10.80;99.90
9881;DHT22;4979;51.014;6.678;2023-11-21T13:47:38;10.80;99.90
9881;DHT22;4979;51.014;6.678;2023-11-21T13:50:04;10.80;99.90
9881;DHT22;4979;51.014;6.678;2023-11-21T13:52:35;10.70;99.90
9881;DHT22;4979;51.014;6.678;2023-11-21T13:55:01;10.80;99.90
9881;DHT22;4979;51.014;6.678;2023-11-21T13:57:31;10.80;99.90
9881;DHT22;4979;51.014;6.678;2023-11-21T13:59:58;10.70;99.90
9881;DHT22;4979;51.014;6.678;2023-11-21T14:02:24;10.90;99.90
9881;DHT22;4979;51.014;6.678;2023-11-21T14:04:57;10.80;99.90
9881;DHT22;4979;51.014;6.678;2023-11-21T14:07:26;10.80;99.90
9881;DHT22;4979;51.014;6.678;2023-11-21T14:10:01;10.80;99.90
9881;DHT22;4979;51.014;6.678;2023-11-21T14:12:29;10.80;99.90
9881;DHT22;4979;51.014;6.678;2023-11-21T14:14:54;10.80;99.90
9881;DHT22;4979;51.014;6.678;2023-11-21T14:17:20;10.80;99.90
9881;DHT22;4979;51.014;6.678;2023-11-21T14:19:49;10.80;99.90
9881;DHT22;4979;51.014;6.678;2023-11-21T14:22:14;10.80;99.90
9881;DHT22;4979;51.014;6.678;2023-11-21T14:24:40;10.90;99.90
9881;DHT22;4979;51.014;6.678;2023-11-21T14:27:13;10.80;99.90
9881;DHT22;4979;51.014;6.678;2023-11-21T14:29:38;10.80;99.90
9881;DHT22;4979;51.014;6.678;2023-11-21T14:32:08;10.70;99.90
9881;DHT22;4979;51.014;6.678;2023-11-21T14:34:34;10.80;99.90
9881;DHT22;4979;51.014;6.678;2023-11-21T14:37:00;10.70;99.90
9881;DHT22;4979;51.014;6.678;2023-11-21T14:39:28;10.70;99.90
9881;DHT22;4979;51.014;6.678;2023-11-21T14:41:54;10.70;99.90
9881;DHT22;4979;51.014;6.678;2023-11-21T14:44:24;10.50;99.90
9881;DHT22;4979;51.014;6.678;2023-11-21T14:46:53;10.50;99.90
9881;DHT22;4979;51.014;6.678;2023-11-21T14:49:20;10.50;99.90
9881;DHT22;4979;51.014;6.678;2023-11-21T14:51:48;10.70;99.90
9881;DHT22;4979;51.014;6.678;2023-11-21T14:54:29;10.60;99.90
9881;DHT22;4979;51.014;6.678;2023-11-21T14:57:14;10.50;99.90
9881;DHT22;4979;51.014;6.678;2023-11-21T14:59:46;10.60;99.90
9881;DHT22;4979;51.014;6.678;2023-11-21T15:02:14;10.50;99.90
9881;DHT22;4979;51.014;6.678;2023-11-21T15:04:43;10.50;99.90
9881;DHT22;4979;51.014;6.678;2023-11-21T15:07:09;10.60;99.90
9881;DHT22;4979;51.014;6.678;2023-11-21T15:09:36;10.60;99.90
9881;DHT22;4979;51.014;6.678;2023-11-21T15:12:09;10.50;99.90
9881;DHT22;4979;51.014;6.678;2023-11-21T15:14:46;10.60;99.90
9881;DHT22;4979;51.014;6.678;2023-11-21T15:17:14;10.40;99.90
9881;DHT22;4979;51.014;6.678;2023-11-21T15:19:51;10.40;99.90
9881;DHT22;4979;51.014;6.678;2023-11-21T15:22:16;10.30;99.90
9881;DHT22;4979;51.014;6.678;2023-11-21T15:24:43;10.30;99.90
9881;DHT22;4979;51.014;6.678;2023-11-21T15:27:11;10.30;99.90
9881;DHT22;4979;51.014;6.678;2023-11-21T15:29:38;10.10;99.90
9881;DHT22;4979;51.014;6.678;2023-11-21T15:32:04;10.10;99.90
9881;DHT22;4979;51.014;6.678;2023-11-21T15:34:31;10.20;99.90
9881;DHT22;4979;51.014;6.678;2023-11-21T15:36:58;10.00;99.90
9881;DHT22;4979;51.014;6.678;2023-11-21T15:39:23;10.10;99.90
9881;DHT22;4979;51.014;6.678;2023-11-21T15:41:53;10.10;99.90
9881;DHT22;4979;51.014;6.678;2023-11-21T15:44:19;10.10;99.90
9881;DHT22;4979;51.014;6.678;2023-11-21T15:46:44;10.10;99.90
9881;DHT22;4979;51.014;6.678;2023-11-21T15:49:11;10.10;99.90
9881;DHT22;4979;51.014;6.678;2023-11-21T15:51:44;9.90;99.90
9881;DHT22;4979;51.014;6.678;2023-11-21T15:54:12;10.00;99.90
9881;DHT22;4979;51.014;6.678;2023-11-21T15:56:38;10.10;99.90
9881;DHT22;4979;51.014;6.678;2023-11-21T15:59:04;9.90;99.90
9881;DHT22;4979;51.014;6.678;2023-11-21T16:01:31;9.90;99.90
9881;DHT22;4979;51.014;6.678;2023-11-21T16:03:57;10.00;99.90
9881;DHT22;4979;51.014;6.678;2023-11-21T16:06:25;10.00;99.90
9881;DHT22;4979;51.014;6.678;2023-11-21T16:08:52;10.00;99.90
9881;DHT22;4979;51.014;6.678;2023-11-21T16:11:18;9.90;99.90
9881;DHT22;4979;51.014;6.678;2023-11-21T16:13:44;10.00;99.90
9881;DHT22;4979;51.014;6.678;2023-11-21T16:16:11;9.90;99.90
9881;DHT22;4979;51.014;6.678;2023-11-21T16:18:37;9.90;99.90
9881;DHT22;4979;51.014;6.678;2023-11-21T16:21:03;10.00;99.90
9881;DHT22;4979;51.014;6.678;2023-11-21T16:23:28;10.10;99.90
9881;DHT22;4979;51.014;6.678;2023-11-21T16:25:54;9.90;99.90
9881;DHT22;4979;51.014;6.678;2023-11-21T16:28:24;9.90;99.90
9881;DHT22;4979;51.014;6.678;2023-11-21T16:30:50;10.00;99.90
9881;DHT22;4979;51.014;6.678;2023-11-21T16:33:16;10.00;99.90
9881;DHT22;4979;51.014;6.678;2023-11-21T16:35:41;10.00;99.90
9881;DHT22;4979;51.014;6.678;2023-11-21T16:38:07;9.80;99.90